Time;durP1;ratioP1;P1;durP2;ratioP2;P2;SDS_P1;SDS_P2;PMS_P1;PMS_P2;Temp;Humidity;BMP_temperature;BMP_pressure;BME280_temperature;BME280_humidity;BME280_pressure;Samples;Min_cycle;Max_cycle;Signal;HPM_P1;HPM_P2
2021/09/17 00:02:14;;;;;;;3.47;0.65;;;;;;;17.05;68.95;100462.06;4967178;28;20042;-80
2021/09/17 00:04:40;;;;;;;2.40;0.68;;;;;;;17.06;68.63;100472.06;4967724;28;20082;-80
2021/09/17 00:07:07;;;;;;;1.55;0.57;;;;;;;17.12;68.47;100461.28;4968723;28;20093;-80
2021/09/17 00:09:34;;;;;;;3.60;0.80;;;;;;;17.12;68.24;100467.69;4925897;28;20043;-80
2021/09/17 00:12:01;;;;;;;2.50;0.93;;;;;;;17.13;68.33;100458.09;4967261;28;20054;-80
2021/09/17 00:14:28;;;;;;;4.28;0.77;;;;;;;17.15;68.20;100461.31;4967206;28;20500;-80
2021/09/17 00:16:55;;;;;;;4.07;0.70;;;;;;;17.14;68.42;100448.50;4950975;28;20430;-80
2021/09/17 00:19:22;;;;;;;3.97;1.23;;;;;;;17.14;68.55;100454.09;4965828;28;20046;-80
2021/09/17 00:21:49;;;;;;;2.72;0.80;;;;;;;17.14;68.60;100459.69;4934708;28;20050;-80
2021/09/17 00:24:16;;;;;;;3.58;0.80;;;;;;;17.13;68.66;100457.31;4941160;28;20050;-80
2021/09/17 00:26:43;;;;;;;3.83;0.88;;;;;;;17.11;68.72;100452.09;4966932;28;20038;-80
2021/09/17 00:29:10;;;;;;;2.83;0.70;;;;;;;17.11;68.73;100454.09;4949843;28;20041;-80
2021/09/17 00:31:37;;;;;;;4.00;1.02;;;;;;;17.13;68.88;100454.53;4966737;28;20043;-80
2021/09/17 00:34:03;;;;;;;4.68;0.75;;;;;;;17.13;68.95;100457.31;4964965;28;20046;-80
2021/09/17 00:36:30;;;;;;;4.57;0.95;;;;;;;17.11;68.71;100454.91;4939474;28;20067;-80
2021/09/17 00:38:57;;;;;;;4.43;0.90;;;;;;;17.04;68.67;100452.09;4966468;28;20049;-80
2021/09/17 00:41:24;;;;;;;2.08;0.88;;;;;;;17.01;68.57;100445.28;4964000;28;20058;-80
2021/09/17 00:43:50;;;;;;;7.05;1.02;;;;;;;17.00;68.68;100448.47;4949181;28;20483;-80
2021/09/17 00:46:18;;;;;;;5.20;1.08;;;;;;;17.00;68.42;100443.69;4948927;28;20061;-80
2021/09/17 00:48:45;;;;;;;3.78;0.90;;;;;;;16.99;68.29;100441.28;4966470;28;20041;-80
2021/09/17 00:51:12;;;;;;;7.43;1.02;;;;;;;16.94;68.69;100436.88;4950082;28;20406;-80
2021/09/17 00:53:39;;;;;;;7.40;0.85;;;;;;;16.96;68.57;100436.50;4970629;28;20039;-80
2021/09/17 00:56:06;;;;;;;5.45;0.90;;;;;;;16.93;68.44;100434.47;4955159;28;20585;-80
2021/09/17 00:58:32;;;;;;;4.07;0.85;;;;;;;16.90;68.46;100432.47;4944200;28;20046;-80
2021/09/17 01:00:59;;;;;;;2.72;0.70;;;;;;;16.89;68.39;100439.28;4934040;28;20146;-80
2021/09/17 01:03:29;;;;;;;3.08;0.93;;;;;;;16.87;68.49;100444.44;4953665;28;20085;-80
2021/09/17 01:05:59;;;;;;;3.00;0.82;;;;;;;16.85;68.28;100433.66;4970701;28;20042;-80
2021/09/17 01:08:31;;;;;;;2.65;0.90;;;;;;;16.85;68.15;100435.66;4954251;28;20074;-80
2021/09/17 01:10:58;;;;;;;8.48;1.52;;;;;;;16.84;68.40;100428.44;4970636;28;20031;-80
2021/09/17 01:13:27;;;;;;;7.03;1.27;;;;;;;16.84;68.27;100428.44;4954087;28;20038;-80
2021/09/17 01:15:54;;;;;;;5.03;0.90;;;;;;;16.85;68.21;100424.47;4970901;28;20487;-80
2021/09/17 01:18:21;;;;;;;4.78;1.00;;;;;;;16.83;68.04;100421.28;4970507;28;20049;-80
2021/09/17 01:20:47;;;;;;;2.58;0.95;;;;;;;16.82;68.28;100411.28;4951393;28;20114;-80
2021/09/17 01:23:14;;;;;;;3.65;0.98;;;;;;;16.80;68.38;100406.09;4970712;28;20402;-80
2021/09/17 01:25:41;;;;;;;11.57;1.33;;;;;;;16.78;68.15;100405.69;4970385;28;20055;-80
2021/09/17 01:28:08;;;;;;;4.07;1.10;;;;;;;16.76;68.40;100404.50;4968963;28;20053;-80
2021/09/17 01:30:34;;;;;;;1.35;0.55;;;;;;;16.77;68.34;100394.88;4971759;28;20058;-80
2021/09/17 01:33:01;;;;;;;2.78;1.00;;;;;;;16.74;68.28;100382.50;4937395;28;20054;-80
2021/09/17 01:35:28;;;;;;;3.92;0.90;;;;;;;16.77;68.42;100383.72;4967235;28;20046;-81
2021/09/17 01:37:55;;;;;;;8.20;1.02;;;;;;;16.76;68.79;100379.31;4971075;28;20039;-80
2021/09/17 01:40:22;;;;;;;5.10;1.48;;;;;;;16.76;68.41;100387.72;4971861;28;20065;-80
2021/09/17 01:42:49;;;;;;;4.25;0.80;;;;;;;16.77;68.56;100384.50;4968200;28;20034;-80
2021/09/17 01:45:16;;;;;;;9.48;2.63;;;;;;;16.78;68.68;100385.31;4969931;28;20046;-80
2021/09/17 01:47:43;;;;;;;3.20;0.80;;;;;;;16.76;68.97;100393.31;4963123;28;20533;-80
2021/09/17 01:50:10;;;;;;;4.28;0.63;;;;;;;16.79;68.88;100387.72;4969401;28;20039;-80
2021/09/17 01:52:37;;;;;;;4.85;0.90;;;;;;;16.77;69.05;100395.69;4969889;28;20047;-80
2021/09/17 01:55:05;;;;;;;6.28;1.42;;;;;;;16.78;69.05;100391.72;4971487;28;20069;-80
2021/09/17 01:57:32;;;;;;;5.47;0.90;;;;;;;16.80;69.20;100399.69;4961513;28;20039;-80
2021/09/17 01:59:59;;;;;;;3.85;0.80;;;;;;;16.80;69.24;100378.13;4945629;28;20054;-80
2021/09/17 02:02:26;;;;;;;14.35;1.70;;;;;;;16.80;69.47;100377.31;4963711;28;20125;-80
2021/09/17 02:04:57;;;;;;;5.97;1.13;;;;;;;16.80;69.45;100382.91;4944604;28;20070;-80
2021/09/17 02:07:24;;;;;;;2.63;1.15;;;;;;;16.81;69.60;100367.75;4940118;28;20059;-80
2021/09/17 02:09:51;;;;;;;4.25;1.20;;;;;;;16.83;69.83;100370.94;4952197;28;20035;-80
2021/09/17 02:12:18;;;;;;;3.42;1.13;;;;;;;16.83;69.89;100359.75;4936274;28;20094;-80
2021/09/17 02:14:44;;;;;;;4.50;1.30;;;;;;;16.83;70.29;100356.97;4952193;28;20054;-80
2021/09/17 02:17:11;;;;;;;9.05;1.52;;;;;;;16.80;70.62;100343.78;4949948;28;20039;-81
2021/09/17 02:19:38;;;;;;;3.85;1.42;;;;;;;16.78;70.81;100337.78;4966994;28;20042;-80
2021/09/17 02:22:05;;;;;;;6.40;1.45;;;;;;;16.74;70.99;100329.38;4966222;28;20039;-80
2021/09/17 02:24:31;;;;;;;3.90;1.27;;;;;;;16.74;71.09;100323.78;4970213;28;20051;-80
2021/09/17 02:26:58;;;;;;;10.93;1.67;;;;;;;16.74;71.53;100323.00;4970197;28;20475;-81
2021/09/17 02:29:25;;;;;;;4.43;1.00;;;;;;;16.70;71.84;100317.41;4951337;28;20125;-79
2021/09/17 02:31:52;;;;;;;5.80;1.90;;;;;;;16.73;71.75;100316.59;4952967;28;20423;-80
2021/09/17 02:34:18;;;;;;;10.38;1.70;;;;;;;16.73;72.06;100318.63;4950863;28;20068;-80
2021/09/17 02:36:45;;;;;;;5.53;1.30;;;;;;;16.74;72.06;100323.00;4969163;28;20050;-80
2021/09/17 02:39:14;;;;;;;3.88;0.88;;;;;;;16.73;72.28;100310.22;4951838;28;20057;-80
2021/09/17 02:41:41;;;;;;;5.65;1.83;;;;;;;16.72;72.80;100314.22;4949903;28;20494;-80
2021/09/17 02:44:09;;;;;;;6.90;2.65;;;;;;;16.71;72.90;100315.41;4967400;28;20047;-80
2021/09/17 02:46:36;;;;;;;6.28;1.73;;;;;;;16.70;72.84;100308.22;4965548;28;20047;-80
2021/09/17 02:49:03;;;;;;;3.10;1.17;;;;;;;16.69;73.18;100298.22;4950645;28;20053;-80
2021/09/17 02:51:30;;;;;;;3.30;0.95;;;;;;;16.69;73.19;100292.63;4944233;28;20039;-80
2021/09/17 02:53:58;;;;;;;7.75;2.45;;;;;;;16.69;73.50;100287.03;4967025;28;20046;-81
2021/09/17 02:56:25;;;;;;;9.65;1.20;;;;;;;16.68;73.60;100274.28;4936127;28;20035;-80
2021/09/17 02:58:52;;;;;;;7.18;1.65;;;;;;;16.65;73.83;100286.25;4929293;28;20050;-80
2021/09/17 03:01:19;;;;;;;7.10;1.23;;;;;;;16.60;73.83;100279.03;4951813;28;20073;-80
2021/09/17 03:03:46;;;;;;;4.50;1.13;;;;;;;16.59;74.16;100276.66;4950443;28;20075;-80
2021/09/17 03:06:12;;;;;;;5.30;1.25;;;;;;;16.56;74.13;100283.84;4950302;28;20049;-80
2021/09/17 03:08:39;;;;;;;7.05;1.55;;;;;;;16.54;74.41;100283.44;4967913;28;20039;-80
2021/09/17 03:11:06;;;;;;;5.85;1.05;;;;;;;16.53;74.70;100272.66;4951004;28;20054;-80
2021/09/17 03:13:33;;;;;;;5.10;1.17;;;;;;;16.52;74.81;100280.19;4950812;28;20101;-80
2021/09/17 03:16:00;;;;;;;4.45;1.05;;;;;;;16.54;74.81;100268.66;4967066;28;20070;-80
2021/09/17 03:18:26;;;;;;;7.75;1.60;;;;;;;16.55;74.95;100271.03;4948713;28;20049;-80
2021/09/17 03:20:53;;;;;;;9.25;1.40;;;;;;;16.55;74.97;100265.47;4966978;28;20043;-80
2021/09/17 03:23:20;;;;;;;3.28;1.10;;;;;;;16.53;74.99;100250.28;4952003;28;20046;-79
2021/09/17 03:25:47;;;;;;;4.35;0.90;;;;;;;16.52;75.12;100248.69;4967651;28;20050;-80
2021/09/17 03:28:14;;;;;;;6.65;1.35;;;;;;;16.51;75.25;100245.06;4967059;28;20042;-80
2021/09/17 03:30:41;;;;;;;7.85;1.58;;;;;;;16.47;75.55;100247.06;4967341;28;20070;-80
2021/09/17 03:33:09;;;;;;;3.97;1.52;;;;;;;16.46;75.63;100248.25;4968262;28;20486;-80
2021/09/17 03:35:38;;;;;;;7.35;1.02;;;;;;;16.43;75.72;100241.47;4949865;28;20054;-80
2021/09/17 03:38:07;;;;;;;8.95;3.22;;;;;;;16.42;75.76;100248.25;4950935;28;20125;-80
2021/09/17 03:40:35;;;;;;;4.18;0.80;;;;;;;16.42;75.85;100241.84;4968471;28;20047;-80
2021/09/17 03:43:03;;;;;;;3.40;0.98;;;;;;;16.42;75.98;100245.47;4964585;28;20039;-80
2021/09/17 03:45:32;;;;;;;4.78;0.73;;;;;;;16.46;76.04;100245.47;4963512;28;20130;-80
2021/09/17 03:48:06;;;;;;;3.90;1.05;;;;;;;16.50;76.18;100253.84;4964378;28;20053;-80
2021/09/17 03:50:33;;;;;;;3.38;0.68;;;;;;;16.53;76.23;100241.91;4956689;28;20399;-80
2021/09/17 03:53:01;;;;;;;1.63;0.43;;;;;;;16.54;76.43;100246.31;4968913;28;20046;-80
2021/09/17 03:55:29;;;;;;;1.23;0.70;;;;;;;16.55;76.36;100250.72;4968502;28;20097;-80
2021/09/17 03:57:55;;;;;;;0.52;0.20;;;;;;;16.58;76.30;100239.53;4967996;28;20073;-80
2021/09/17 04:00:22;;;;;;;1.35;0.20;;;;;;;16.62;76.41;100231.16;4966043;28;20039;-80
2021/09/17 04:02:49;;;;;;;0.60;0.20;;;;;;;16.65;76.50;100224.75;4950369;28;20501;-80
2021/09/17 04:05:16;;;;;;;1.63;0.17;;;;;;;16.67;76.39;100227.94;4951344;28;20049;-80
2021/09/17 04:07:43;;;;;;;0.30;0.20;;;;;;;16.69;76.58;100226.34;4968628;28;20038;-80
2021/09/17 04:10:13;;;;;;;3.20;0.25;;;;;;;16.70;76.68;100215.97;4940499;28;20094;-80
2021/09/17 04:12:41;;;;;;;1.02;0.40;;;;;;;16.72;76.54;100219.16;4967245;28;20118;-80
2021/09/17 04:15:08;;;;;;;0.73;0.20;;;;;;;16.74;76.63;100216.75;4950900;28;20546;-80
2021/09/17 04:17:35;;;;;;;0.43;0.10;;;;;;;16.73;76.56;100210.38;4950871;28;20471;-80
2021/09/17 04:20:06;;;;;;;2.00;0.57;;;;;;;16.75;76.60;100215.56;4968172;28;20046;-80
2021/09/17 04:22:34;;;;;;;0.80;0.28;;;;;;;16.78;76.67;100200.81;4964305;28;20125;-80
2021/09/17 04:25:02;;;;;;;3.60;0.30;;;;;;;16.78;76.51;100206.41;4968055;28;20074;-80
2021/09/17 04:27:28;;;;;;;2.88;0.93;;;;;;;16.78;76.68;100206.41;4968172;28;20057;-80
2021/09/17 04:29:55;;;;;;;1.48;0.40;;;;;;;16.78;76.86;100200.81;4967022;28;20042;-80
2021/09/17 04:32:22;;;;;;;1.90;0.57;;;;;;;16.77;76.98;100204.78;4968008;28;20054;-80
2021/09/17 04:34:49;;;;;;;1.80;0.60;;;;;;;16.76;77.03;100206.00;4951156;28;20406;-80
2021/09/17 04:37:17;;;;;;;2.97;0.50;;;;;;;16.75;77.29;100207.19;4949023;28;20050;-80
2021/09/17 04:39:44;;;;;;;1.75;0.40;;;;;;;16.74;77.55;100205.59;4967380;28;20047;-80
2021/09/17 04:42:10;;;;;;;0.52;0.28;;;;;;;16.75;77.47;100198.81;4951346;28;20120;-80
2021/09/17 04:44:38;;;;;;;1.27;0.60;;;;;;;16.75;77.63;100207.19;4934487;28;20465;-80
2021/09/17 04:47:05;;;;;;;2.67;0.90;;;;;;;16.73;77.86;100204.00;4963728;28;20055;-80
2021/09/17 04:49:32;;;;;;;2.55;0.50;;;;;;;16.72;77.98;100197.59;4968080;28;20043;-80
2021/09/17 04:51:59;;;;;;;3.47;1.20;;;;;;;16.70;78.02;100205.59;4964707;28;20039;-80
2021/09/17 04:54:25;;;;;;;3.35;0.73;;;;;;;16.68;78.41;100196.78;4925288;28;20054;-80
2021/09/17 04:56:52;;;;;;;2.78;0.73;;;;;;;16.68;78.48;100201.59;4964631;28;20035;-80
2021/09/17 04:59:19;;;;;;;1.58;0.60;;;;;;;16.64;78.62;100189.63;4966734;28;20047;-80
2021/09/17 05:01:47;;;;;;;6.53;1.17;;;;;;;16.66;78.77;100192.81;4963868;28;20057;-80
2021/09/17 05:04:14;;;;;;;2.78;0.90;;;;;;;16.66;78.87;100190.00;4964619;28;20086;-80
2021/09/17 05:06:41;;;;;;;6.22;1.48;;;;;;;16.64;78.98;100190.41;4942907;28;20081;-80
2021/09/17 05:09:08;;;;;;;1.75;0.52;;;;;;;16.67;79.07;100188.81;4938935;28;20035;-79
2021/09/17 05:11:34;;;;;;;5.13;0.88;;;;;;;16.66;79.01;100187.22;4939766;28;20043;-79
2021/09/17 05:14:01;;;;;;;4.43;0.57;;;;;;;16.64;79.64;100184.03;4965159;28;20042;-80
2021/09/17 05:16:32;;;;;;;1.55;1.02;;;;;;;16.64;79.20;100170.84;4948898;28;20049;-80
2021/09/17 05:18:59;;;;;;;2.72;0.82;;;;;;;16.64;79.46;100172.84;4965198;28;20053;-80
2021/09/17 05:21:26;;;;;;;1.63;0.63;;;;;;;16.66;79.48;100164.84;4947755;28;20494;-80
2021/09/17 05:23:53;;;;;;;2.17;0.93;;;;;;;16.66;79.53;100164.84;4942585;28;20843;-80
2021/09/17 05:26:20;;;;;;;3.90;0.73;;;;;;;16.63;79.59;100172.03;4966226;28;20047;-80
2021/09/17 05:28:47;;;;;;;2.80;0.70;;;;;;;16.63;79.87;100160.88;4947430;28;20050;-80
2021/09/17 05:31:14;;;;;;;0.65;0.50;;;;;;;16.62;79.96;100164.06;4949796;28;20054;-80
2021/09/17 05:33:41;;;;;;;1.55;0.80;;;;;;;16.60;80.49;100166.47;4967173;28;20125;-80
2021/09/17 05:36:07;;;;;;;3.75;1.17;;;;;;;16.59;80.38;100159.28;4967881;28;20058;-80
2021/09/17 05:38:34;;;;;;;2.88;0.80;;;;;;;16.57;80.62;100162.47;4969141;28;20406;-80
2021/09/17 05:41:01;;;;;;;1.40;0.50;;;;;;;16.55;80.81;100164.84;4953323;28;20053;-79
2021/09/17 05:43:28;;;;;;;3.38;1.10;;;;;;;16.57;80.99;100172.84;4969896;28;20901;-80
2021/09/17 05:45:55;;;;;;;3.28;0.70;;;;;;;16.55;81.03;100178.06;4968070;28;20061;-80
2021/09/17 05:48:23;;;;;;;6.63;1.00;;;;;;;16.56;81.10;100177.63;4969632;28;20039;-80
2021/09/17 05:50:51;;;;;;;1.08;0.75;;;;;;;16.55;81.18;100178.06;4953046;28;20072;-80
2021/09/17 05:53:18;;;;;;;3.90;0.98;;;;;;;16.56;81.34;100176.84;4967855;28;20046;-80
2021/09/17 05:55:45;;;;;;;5.07;0.95;;;;;;;16.55;81.51;100172.47;4968732;28;20042;-80
2021/09/17 05:58:12;;;;;;;3.58;1.05;;;;;;;16.54;82.07;100168.06;4953004;28;20043;-80
2021/09/17 06:00:39;;;;;;;1.95;0.90;;;;;;;16.53;82.05;100183.22;4935116;28;20494;-80
2021/09/17 06:03:06;;;;;;;4.18;1.17;;;;;;;16.53;82.13;100172.84;4970106;28;20478;-80
2021/09/17 06:05:35;;;;;;;1.33;0.50;;;;;;;16.53;82.43;100174.84;4969166;28;20137;-80
2021/09/17 06:08:03;;;;;;;1.75;0.50;;;;;;;16.54;82.30;100180.03;4969873;28;20045;-80
2021/09/17 06:10:30;;;;;;;1.27;0.73;;;;;;;16.55;82.40;100180.84;4970549;28;20133;-80
2021/09/17 06:12:57;;;;;;;3.05;0.82;;;;;;;16.57;82.46;100178.44;4941697;28;20043;-80
2021/09/17 06:15:23;;;;;;;4.60;1.15;;;;;;;16.55;82.50;100170.44;4967325;28;20491;-80
2021/09/17 06:17:50;;;;;;;1.40;0.60;;;;;;;16.57;82.55;100179.25;4952107;28;20047;-80
2021/09/17 06:20:17;;;;;;;2.17;0.63;;;;;;;16.57;82.45;100173.66;4950868;28;20157;-80
2021/09/17 06:22:45;;;;;;;0.75;0.43;;;;;;;16.58;82.54;100168.84;4953555;28;20459;-80
2021/09/17 06:25:15;;;;;;;6.55;0.73;;;;;;;16.58;82.68;100174.44;4966926;28;20082;-80
2021/09/17 06:27:43;;;;;;;5.13;1.02;;;;;;;16.59;83.00;100176.03;4964704;28;20081;-80
2021/09/17 06:30:10;;;;;;;2.83;0.77;;;;;;;16.59;83.08;100174.06;4968213;28;20043;-80
2021/09/17 06:32:37;;;;;;;2.95;0.80;;;;;;;16.56;83.26;100174.84;4969334;28;20050;-80
2021/09/17 06:35:05;;;;;;;5.22;0.93;;;;;;;16.56;83.71;100185.22;4950956;28;20046;-80
2021/09/17 06:37:32;;;;;;;3.70;1.08;;;;;;;16.54;83.81;100165.25;4935417;28;20525;-80
2021/09/17 06:39:59;;;;;;;3.67;0.90;;;;;;;16.56;83.91;100171.25;4969787;28;20038;-80
2021/09/17 06:42:26;;;;;;;3.33;0.85;;;;;;;16.54;84.16;100168.06;4936284;28;20134;-80
2021/09/17 06:44:53;;;;;;;1.67;0.60;;;;;;;16.51;84.53;100158.44;4952133;28;20048;-80
2021/09/17 06:47:20;;;;;;;4.47;0.70;;;;;;;16.50;84.28;100162.44;4939708;28;20047;-80
2021/09/17 06:49:47;;;;;;;4.03;0.88;;;;;;;16.51;84.61;100157.66;4965979;28;20055;-80
2021/09/17 06:52:13;;;;;;;4.32;0.70;;;;;;;16.48;84.94;100164.03;4967060;28;20130;-79
2021/09/17 06:54:40;;;;;;;1.45;0.75;;;;;;;16.46;84.95;100153.25;4937878;28;20078;-80
2021/09/17 06:57:07;;;;;;;0.82;0.40;;;;;;;16.45;85.31;100151.66;4966713;28;20054;-80
2021/09/17 06:59:34;;;;;;;7.10;1.50;;;;;;;16.44;85.55;100164.81;4968977;28;20088;-81
2021/09/17 07:02:01;;;;;;;2.50;0.82;;;;;;;16.43;85.63;100154.88;4950440;28;20042;-81
2021/09/17 07:04:28;;;;;;;5.28;1.13;;;;;;;16.45;85.70;100160.84;4967705;28;20076;-81
2021/09/17 07:06:55;;;;;;;2.55;0.65;;;;;;;16.44;85.78;100164.81;4969470;28;20172;-81
2021/09/17 07:09:22;;;;;;;2.13;0.75;;;;;;;16.44;86.02;100161.25;4967148;28;20051;-81
2021/09/17 07:11:49;;;;;;;3.17;0.57;;;;;;;16.47;86.07;100156.88;4968425;28;20110;-81
2021/09/17 07:14:16;;;;;;;0.95;0.30;;;;;;;16.46;86.17;100164.44;4939318;28;20477;-81
2021/09/17 07:16:47;;;;;;;2.50;0.30;;;;;;;16.47;86.32;100162.44;4967321;28;20235;-81
2021/09/17 07:19:14;;;;;;;2.47;0.30;;;;;;;16.49;86.47;100160.03;4953634;28;20057;-82
2021/09/17 07:21:41;;;;;;;0.50;0.10;;;;;;;16.49;86.17;100162.84;4968765;28;20058;-81
2021/09/17 07:24:08;;;;;;;1.08;0.22;;;;;;;16.50;85.96;100161.63;4969180;28;20517;-81
2021/09/17 07:26:35;;;;;;;1.27;0.15;;;;;;;16.52;86.26;100171.22;4948457;28;20055;-81
2021/09/17 07:29:01;;;;;;;0.40;0.25;;;;;;;16.54;86.39;100163.28;4942623;28;20118;-81
2021/09/17 07:31:28;;;;;;;0.35;0.10;;;;;;;16.55;86.51;100170.44;4968334;28;20074;-81
2021/09/17 07:33:55;;;;;;;0.10;0.10;;;;;;;16.56;86.46;100165.66;4968086;28;20149;-81
2021/09/17 07:36:22;;;;;;;1.75;0.25;;;;;;;16.56;86.41;100163.66;4968572;28;20051;-82
2021/09/17 07:38:49;;;;;;;1.27;0.28;;;;;;;16.58;86.34;100166.06;4951226;28;20122;-81
2021/09/17 07:41:15;;;;;;;2.03;0.25;;;;;;;16.60;86.33;100161.66;4962933;28;20414;-80
2021/09/17 07:43:42;;;;;;;0.10;0.10;;;;;;;16.61;86.40;100168.84;4968309;28;20038;-81
2021/09/17 07:46:09;;;;;;;0.45;0.10;;;;;;;16.61;86.47;100162.47;4968268;28;20089;-80
2021/09/17 07:48:36;;;;;;;0.82;0.10;;;;;;;16.62;86.51;100164.06;4938351;28;20141;-81
2021/09/17 07:51:03;;;;;;;1.58;0.30;;;;;;;16.65;86.47;100168.88;4968346;28;20054;-80
2021/09/17 07:53:29;;;;;;;1.33;0.10;;;;;;;16.66;86.61;100162.06;4968898;28;20048;-81
2021/09/17 07:55:56;;;;;;;1.67;0.15;;;;;;;16.66;86.63;100157.28;4968843;28;20063;-80
2021/09/17 07:58:23;;;;;;;2.20;0.22;;;;;;;16.67;86.37;100158.88;4947995;28;20463;-80
2021/09/17 08:00:50;;;;;;;2.15;0.30;;;;;;;16.69;86.50;100158.47;4941983;28;20035;-80
2021/09/17 08:03:18;;;;;;;2.28;0.25;;;;;;;16.70;86.52;100162.88;4964804;28;20101;-80
2021/09/17 08:05:46;;;;;;;1.10;0.25;;;;;;;16.72;86.73;100157.66;4933234;28;20051;-80
2021/09/17 08:08:15;;;;;;;1.33;0.40;;;;;;;16.73;86.75;100164.88;4966325;28;20047;-81
2021/09/17 08:10:42;;;;;;;0.65;0.20;;;;;;;16.75;86.56;100174.44;4966256;28;20042;-81
2021/09/17 08:13:09;;;;;;;1.60;0.32;;;;;;;16.76;86.76;100164.06;4965115;28;20053;-82
2021/09/17 08:15:35;;;;;;;1.50;0.40;;;;;;;16.78;86.83;100167.25;4940482;28;20080;-81
2021/09/17 08:18:02;;;;;;;2.55;0.38;;;;;;;16.81;86.74;100177.63;4948225;28;20042;-82
2021/09/17 08:20:29;;;;;;;1.95;0.22;;;;;;;16.83;86.68;100164.06;4932070;28;20072;-81
2021/09/17 08:22:56;;;;;;;2.20;0.20;;;;;;;16.85;87.02;100164.44;4945831;28;20078;-81
2021/09/17 08:25:23;;;;;;;1.85;0.20;;;;;;;16.88;86.93;100166.44;4964523;28;20049;-81
2021/09/17 08:27:50;;;;;;;0.20;0.20;;;;;;;16.91;86.89;100160.03;4964326;28;20471;-80
2021/09/17 08:30:16;;;;;;;2.20;0.10;;;;;;;16.93;86.99;100175.22;4950042;28;20078;-80
2021/09/17 08:32:43;;;;;;;0.80;0.30;;;;;;;16.94;87.07;100162.03;4933225;28;20051;-81
2021/09/17 08:35:11;;;;;;;0.80;0.57;;;;;;;16.96;87.03;100168.03;4948003;28;20047;-81
2021/09/17 08:37:42;;;;;;;1.88;0.20;;;;;;;16.95;87.05;100172.00;4950034;28;20615;-80
2021/09/17 08:40:12;;;;;;;0.40;0.15;;;;;;;16.93;87.14;100172.44;4932411;28;20070;-80
2021/09/17 08:42:40;;;;;;;1.98;0.25;;;;;;;16.93;87.01;100163.22;4965105;28;20515;-80
2021/09/17 08:45:07;;;;;;;0.20;0.10;;;;;;;16.92;87.39;100165.22;4949292;28;20057;-81
2021/09/17 08:47:34;;;;;;;1.45;0.10;;;;;;;16.91;87.04;100165.63;4966160;28;20046;-80
2021/09/17 08:50:02;;;;;;;0.55;0.20;;;;;;;16.89;87.23;100179.22;4967949;28;20055;-80
2021/09/17 08:52:29;;;;;;;2.88;0.35;;;;;;;16.88;87.22;100174.81;4967642;28;20043;-79
2021/09/17 08:54:56;;;;;;;1.20;0.10;;;;;;;16.89;87.52;100177.22;4968129;28;20483;-80
2021/09/17 08:57:22;;;;;;;0.88;0.30;;;;;;;16.87;87.31;100176.81;4966453;28;20034;-80
2021/09/17 08:59:49;;;;;;;2.92;0.20;;;;;;;16.88;87.49;100178.44;4966640;28;20491;-80
2021/09/17 09:02:23;;;;;;;2.35;0.20;;;;;;;16.86;87.85;100185.63;4963616;28;20509;-81
2021/09/17 09:04:59;;;;;;;2.53;0.28;;;;;;;16.88;87.94;100189.63;4967935;28;20546;-81
2021/09/17 09:07:38;;;;;;;1.90;1.40;;;;;;;16.89;88.21;100196.00;4964952;28;20046;-80
2021/09/17 09:10:14;;;;;;;3.38;0.20;;;;;;;16.88;87.92;100195.19;4946755;28;20133;-79
2021/09/17 09:13:10;;;;;;;1.10;0.63;;;;;;;16.90;88.49;100203.19;4966115;28;20054;-79
2021/09/17 09:15:36;;;;;;;5.15;0.40;;;;;;;16.90;88.04;100195.59;4933500;28;20152;-80
2021/09/17 09:18:11;;;;;;;1.55;0.30;;;;;;;16.92;88.10;100207.16;4955908;28;20141;-80
2021/09/17 09:20:41;;;;;;;5.78;0.40;;;;;;;16.94;88.15;100212.38;4952119;28;20047;-79
2021/09/17 09:23:24;;;;;;;2.63;0.65;;;;;;;16.96;87.99;100201.59;4953649;28;20502;-80
2021/09/17 09:25:57;;;;;;;3.33;0.55;;;;;;;16.97;88.23;100201.16;4954030;28;20133;-79
2021/09/17 09:28:45;;;;;;;4.70;0.50;;;;;;;16.97;88.40;100206.00;4968558;28;20146;-80
2021/09/17 09:31:18;;;;;;;1.75;0.40;;;;;;;16.98;88.20;100202.78;4951924;28;20097;-80
2021/09/17 09:33:47;;;;;;;3.50;0.45;;;;;;;17.03;88.22;100207.16;4970329;28;20046;-80
2021/09/17 09:36:19;;;;;;;0.60;0.30;;;;;;;17.04;88.58;100208.75;4969314;28;20580;-80
2021/09/17 09:38:49;;;;;;;1.17;0.35;;;;;;;17.03;88.45;100216.34;4970888;28;20078;-80
2021/09/17 09:41:28;;;;;;;1.00;0.30;;;;;;;17.06;88.61;100206.34;4951911;28;20049;-81
2021/09/17 09:44:03;;;;;;;0.68;0.28;;;;;;;17.11;88.46;100207.94;4966914;28;20043;-81
2021/09/17 09:46:43;;;;;;;2.30;0.30;;;;;;;17.15;88.75;100231.94;4959837;28;20055;-79
2021/09/17 09:49:22;;;;;;;0.93;0.47;;;;;;;17.17;88.45;100229.53;4942516;28;20047;-80
2021/09/17 09:51:52;;;;;;;2.95;0.63;;;;;;;17.21;88.39;100229.53;4951180;28;20133;-81
2021/09/17 09:54:23;;;;;;;0.68;0.40;;;;;;;17.24;88.56;100251.06;4953306;28;20057;-80
2021/09/17 09:56:52;;;;;;;3.10;0.40;;;;;;;17.24;88.51;100251.88;4954609;28;20130;-82
2021/09/17 09:59:27;;;;;;;2.75;0.47;;;;;;;17.24;88.36;100262.28;4952899;28;20468;-81
2021/09/17 10:01:59;;;;;;;1.85;0.50;;;;;;;17.21;88.09;100258.28;4951531;28;20413;-81
2021/09/17 10:04:28;;;;;;;1.43;0.40;;;;;;;17.21;88.11;100263.88;4950128;28;20058;-81
2021/09/17 10:07:03;;;;;;;0.50;0.43;;;;;;;17.19;88.02;100257.88;4952604;28;20498;-81
2021/09/17 10:09:35;;;;;;;0.65;0.32;;;;;;;17.23;87.96;100253.09;4933656;28;20067;-80
2021/09/17 10:12:07;;;;;;;2.13;0.55;;;;;;;17.26;87.86;100255.06;4936393;28;20054;-81
2021/09/17 10:14:35;;;;;;;;;;;;;;;17.29;87.93;100262.66;4967925;28;20533;-81
2021/09/17 10:17:06;;;;;;;1.00;0.30;;;;;;;17.33;87.35;100266.25;4968163;28;19926;-81
2021/09/17 10:19:33;;;;;;;0.90;0.40;;;;;;;17.34;87.37;100247.47;4951668;28;20065;-82
2021/09/17 10:22:02;;;;;;;0.30;0.30;;;;;;;17.31;87.13;100251.88;4951938;28;20054;-81
2021/09/17 10:24:38;;;;;;;1.05;0.52;;;;;;;17.30;87.39;100244.69;4946333;28;20117;-81
2021/09/17 10:27:18;;;;;;;1.15;0.40;;;;;;;17.33;87.41;100243.88;4951121;28;20491;-81
2021/09/17 10:29:57;;;;;;;0.77;0.77;;;;;;;17.39;87.11;100242.28;4968963;28;20070;-81
2021/09/17 10:32:27;;;;;;;0.52;0.40;;;;;;;17.45;86.88;100246.25;4951487;28;20043;-80
2021/09/17 10:35:10;;;;;;;0.40;0.40;;;;;;;17.53;86.36;100252.66;4965517;28;20050;-81
2021/09/17 10:37:53;;;;;;;0.52;0.30;;;;;;;17.54;85.89;100259.84;4965453;28;20039;-81
2021/09/17 10:40:40;;;;;;;0.30;0.30;;;;;;;17.54;85.89;100260.66;4934369;28;20069;-80
2021/09/17 10:43:10;;;;;;;1.75;0.60;;;;;;;17.58;85.78;100264.22;4968942;28;20058;-81
2021/09/17 10:45:50;;;;;;;2.70;0.70;;;;;;;17.64;85.76;100264.63;4945567;28;20047;-81
2021/09/17 10:48:20;;;;;;;1.20;0.47;;;;;;;17.66;85.68;100267.03;4951707;28;20048;-81
2021/09/17 10:50:54;;;;;;;1.52;0.63;;;;;;;17.65;85.42;100274.63;4968473;28;20047;-80
2021/09/17 10:53:39;;;;;;;0.93;0.73;;;;;;;17.64;85.48;100259.81;4940654;28;20047;-80
2021/09/17 10:56:11;;;;;;;2.72;0.90;;;;;;;17.68;85.52;100270.22;4965306;28;20127;-81
2021/09/17 10:58:41;;;;;;;5.35;1.33;;;;;;;17.71;85.38;100267.41;4950364;28;20545;-80
2021/09/17 11:01:13;;;;;;;2.40;1.02;;;;;;;17.75;85.21;100265.38;4952943;28;20038;-81
2021/09/17 11:03:40;;;;;;;3.40;0.80;;;;;;;17.77;85.09;100268.56;4950195;28;20047;-80
2021/09/17 11:06:26;;;;;;;1.73;0.95;;;;;;;17.80;85.36;100278.97;4968701;28;20046;-81
2021/09/17 11:09:04;;;;;;;4.45;1.30;;;;;;;17.82;85.29;100278.56;4969987;28;20042;-82
2021/09/17 11:11:38;;;;;;;1.65;1.17;;;;;;;17.85;85.20;100280.53;4952851;28;20051;-83
2021/09/17 11:14:08;;;;;;;2.08;1.10;;;;;;;17.86;84.83;100280.16;4965144;28;20038;-82
2021/09/17 11:16:35;;;;;;;1.83;1.40;;;;;;;17.88;84.83;100296.53;4966977;28;20137;-82
2021/09/17 11:19:10;;;;;;;2.83;1.42;;;;;;;17.83;84.62;100289.38;4951049;28;20046;-82
2021/09/17 11:21:42;;;;;;;3.53;1.70;;;;;;;17.82;84.79;100298.94;4968496;28;20043;-83
2021/09/17 11:24:28;;;;;;;2.33;2.03;;;;;;;17.84;84.99;100292.97;4940229;28;20039;-82
2021/09/17 11:26:57;;;;;;;1.75;1.65;;;;;;;17.89;84.75;100289.75;4967024;28;20153;-82
2021/09/17 11:29:25;;;;;;;3.78;2.58;;;;;;;17.92;85.21;100294.53;4966957;28;20815;-82
2021/09/17 11:31:55;;;;;;;4.20;2.28;;;;;;;17.95;85.14;100290.94;4950763;28;20078;-82